TimeCDT,TemperatureF,Dew PointF,Humidity,Sea Level PressureIn,VisibilityMPH,Wind Direction,Wind SpeedMPH,Gust SpeedMPH,PrecipitationIn,Events,Conditions,WindDirDegrees,DateUTC
12:53 AM,59.0,48.9,69,30.02,10.0,Calm,Calm,-,N/A,,Overcast,0,2013-08-01 05:53:00
1:53 AM,61.0,48.9,64,30.02,10.0,WSW,5.8,-,N/A,,Mostly Cloudy,240,2013-08-01 06:53:00
2:53 AM,57.9,50.0,75,30.02,10.0,SW,4.6,-,N/A,,Mostly Cloudy,230,2013-08-01 07:53:00
3:53 AM,57.9,50.0,75,30.02,10.0,Calm,Calm,-,N/A,,Mostly Cloudy,0,2013-08-01 08:53:00
4:53 AM,55.0,48.0,77,30.02,10.0,Calm,Calm,-,N/A,,Scattered Clouds,0,2013-08-01 09:53:00
5:53 AM,55.9,50.0,80,30.02,10.0,SSW,4.6,-,N/A,,Overcast,210,2013-08-01 10:53:00
6:53 AM,57.0,50.0,77,30.02,10.0,Calm,Calm,-,N/A,,Mostly Cloudy,0,2013-08-01 11:53:00
7:53 AM,62.1,50.0,65,30.00,10.0,Calm,Calm,-,N/A,,Scattered Clouds,0,2013-08-01 12:53:00
8:53 AM,66.9,51.1,57,30.00,10.0,Calm,Calm,-,N/A,,Scattered Clouds,0,2013-08-01 13:53:00
9:53 AM,71.1,52.0,51,30.00,10.0,Calm,Calm,-,N/A,,Clear,0,2013-08-01 14:53:00
10:53 AM,75.0,52.0,44,30.00,10.0,WNW,8.1,-,N/A,,Clear,290,2013-08-01 15:53:00
11:53 AM,75.9,48.9,38,29.99,10.0,West,8.1,-,N/A,,Partly Cloudy,280,2013-08-01 16:53:00
12:53 PM,79.0,50.0,36,29.98,10.0,WNW,11.5,-,N/A,,Partly Cloudy,300,2013-08-01 17:53:00
1:53 PM,79.0,48.9,35,29.96,10.0,WNW,10.4,18.4,N/A,,Partly Cloudy,290,2013-08-01 18:53:00
2:53 PM,81.0,51.1,35,29.94,10.0,WNW,15.0,21.9,N/A,,Scattered Clouds,290,2013-08-01 19:53:00
3:53 PM,80.1,50.0,35,29.92,10.0,WNW,9.2,-,N/A,,Partly Cloudy,300,2013-08-01 20:53:00
4:53 PM,81.0,51.1,35,29.91,10.0,NNW,15.0,20.7,N/A,,Mostly Cloudy,330,2013-08-01 21:53:00
5:53 PM,81.0,48.9,33,29.90,10.0,NNW,18.4,23.0,N/A,,Scattered Clouds,330,2013-08-01 22:53:00
6:53 PM,78.1,48.9,36,29.89,10.0,NW,15.0,-,N/A,,Clear,320,2013-08-01 23:53:00
7:53 PM,75.9,50.0,40,29.89,10.0,North,10.4,-,N/A,,Clear,350,2013-08-02 00:53:00
8:53 PM,68.0,52.0,56,29.89,10.0,NNW,6.9,-,N/A,,Clear,340,2013-08-02 01:53:00
9:53 PM,64.0,51.1,63,29.92,10.0,NNW,4.6,-,N/A,,Clear,330,2013-08-02 02:53:00
10:53 PM,63.0,51.1,65,29.92,10.0,WNW,3.5,-,N/A,,Clear,300,2013-08-02 03:53:00
11:53 PM,62.1,51.1,67,29.92,10.0,WNW,3.5,-,N/A,,Clear,290,2013-08-02 04:53:00